Thunder radar more information blitzortung!


Radar de pluja more information rain snow radar


Visita la nostra xarxa de llocs de meteo:

Template documentation
and downloads

And another site



No particular awareness of the weather is required.    There are no Weather-warnings

Pagina Historial Weather Underground text

Diari Resum Agost 15, 2017 Unitats:  Imperial    Mètric   Tant
« Previous Dia
SegĂźent Dia »
Diari Setmana Mensual Anual Personalitzada
  Maxima: Minima: Media:
Temperatura: TemperatureC °F 17.2 °F 25.3 °F
Punt de rosada: DewpointC °F 12.2 °F 16 °F
Humitat: Humidity % 43 % 57 %
Wind Speed: WindSpeedKMH mph 0.0 mph 8.2 mph
RĂ fegues de vent: WindSpeedGustKMH mph - -
Vent:- - East
Pression baro: PressurehPa in 1015.8 in -
Precipitacions: 0.0 in    
Historical Graphs
 
 
Dades de taula per Agost 15, 2017
Temps Temperatura Punt de rosada Pression baro Vent Wind Speed RĂ fegues de vent Humitat Rainfall Rate (Hourly)
TemperatureC °F DewpointC °F PressurehPa in Calm     Humidity % HourlyPrecipMM in
00:00 22.2 °F 13.8 °F 1017.8 in NNE 3.7 mph 3.7 mph 59 % 0.0 in
00:05 22.0 °F 13.9 °F 1017.8 in NE 2.6 mph   60 % 0.0 in
00:10 22.0 °F 13.9 °F 1017.8 in NE 3.7 mph 3.7 mph 60 % 0.0 in
00:15 21.9 °F 14.1 °F 1017.8 in NE 1.9 mph   61 % 0.0 in
00:55 17.5 °F 13.2 °F 1017.8 in WSW 1.6 mph 1.6 mph 76 % 0.0 in
01:05 17.4 °F 13.1 °F 1016.8 in Calm     76 % 0.0 in
01:15 17.3 °F 13.2 °F 1016.8 in Calm     77 % 0.0 in
01:25 17.4 °F 13.3 °F 1017.8 in Calm     77 % 0.0 in
01:35 17.4 °F 13.3 °F 1016.8 in Calm   1.6 mph 77 % 0.0 in
01:45 17.5 °F 13.6 °F 1016.8 in Calm     78 % 0.0 in
01:55 17.5 °F 13.6 °F 1016.8 in Calm   4.8 mph 78 % 0.0 in
02:05 17.3 °F 13.2 °F 1017.8 in NE 3.2 mph 3.2 mph 77 % 0.0 in
02:15 17.2 °F 12.7 °F 1017.8 in NE 1.6 mph 4.8 mph 75 % 0.0 in
02:25 17.4 °F 12.5 °F 1017.8 in NNE 1.6 mph 4.8 mph 73 % 0.0 in
02:35 17.7 °F 12.2 °F 1017.8 in NNE 3.2 mph 4.8 mph 70 % 0.0 in
02:45 18.0 °F 12.2 °F 1017.8 in North 1.6 mph 6.4 mph 69 % 0.0 in
02:55 18.5 °F 12.5 °F 1017.8 in Calm   3.2 mph 68 % 0.0 in
03:05 18.1 °F 12.3 °F 1017.8 in WSW 3.2 mph 4.8 mph 69 % 0.0 in
03:15 18.0 °F 12.7 °F 1017.8 in SW 1.6 mph 4.8 mph 71 % 0.0 in
03:25 18.2 °F 13.1 °F 1017.8 in WSW 3.2 mph 3.2 mph 72 % 0.0 in
03:35 18.9 °F 13.9 °F 1017.8 in SW 1.6 mph 3.2 mph 73 % 0.0 in
03:45 19.6 °F 13.8 °F 1017.8 in East 4.8 mph 6.4 mph 69 % 0.0 in
03:55 20.4 °F 14.1 °F 1017.8 in NNE 1.6 mph 6.4 mph 67 % 0.0 in
04:05 20.6 °F 13.6 °F 1017.8 in North 3.2 mph 6.4 mph 64 % 0.0 in
04:15 21.0 °F 13.4 °F 1017.8 in North 3.2 mph 4.8 mph 62 % 0.0 in
04:25 21.1 °F 13.1 °F 1017.8 in NNE 3.2 mph 9.7 mph 60 % 0.0 in
04:35 21.1 °F 12.8 °F 1017.8 in NNE 8.0 mph 12.9 mph 59 % 0.0 in
04:45 21.8 °F 13.2 °F 1017.8 in NNE 4.8 mph 6.4 mph 58 % 0.0 in
04:55 22.1 °F 12.9 °F 1017.8 in NNE 4.8 mph 9.7 mph 56 % 0.0 in
05:05 22.7 °F 13.2 °F 1017.8 in NNE 3.2 mph 8.0 mph 55 % 0.0 in
05:15 23.2 °F 13.4 °F 1017.8 in NNE 4.8 mph 9.7 mph 54 % 0.0 in
05:25 23.6 °F 13.4 °F 1017.8 in NNE 4.8 mph 4.8 mph 53 % 0.0 in
05:35 24.1 °F 13.6 °F 1017.8 in NNE 8.0 mph 8.0 mph 52 % 0.0 in
05:45 24.5 °F 13.7 °F 1017.8 in NE 4.8 mph 8.0 mph 51 % 0.0 in
10:52 25.7 °F 14.2 °F 1018.8 in East 5.6 mph 5.6 mph 49 % 0.0 in
10:53 25.7 °F 14.2 °F 1018.8 in ESE 6.1 mph 6.1 mph 49 % 0.0 in
10:58 25.6 °F 14.1 °F 1018.8 in NE 7.6 mph 7.6 mph 49 % 0.0 in
11:03 25.6 °F 14.1 °F 1017.8 in NNW 3.7 mph 3.7 mph 49 % 0.0 in
11:08 25.8 °F 14.3 °F 1017.8 in NE 7.4 mph 7.4 mph 49 % 0.0 in
11:13 26.1 °F 14.2 °F 1017.8 in ESE 3.9 mph 4.7 mph 48 % 0.0 in
11:18 26.8 °F 14.9 °F 1017.8 in ENE 5.8 mph 5.8 mph 48 % 0.0 in
11:23 26.8 °F 14.9 °F 1017.8 in SE 7.9 mph 7.9 mph 48 % 0.0 in
11:28 26.7 °F 14.8 °F 1017.8 in ESE 11.1 mph 11.1 mph 48 % 0.0 in
11:33 26.8 °F 14.9 °F 1017.8 in ENE 7.4 mph 7.4 mph 48 % 0.0 in
11:38 27.0 °F 14.7 °F 1017.8 in East 4.2 mph 4.2 mph 47 % 0.0 in
11:43 27.3 °F 14.7 °F 1017.8 in East 7.4 mph 7.4 mph 46 % 0.0 in
11:48 27.5 °F 14.8 °F 1017.8 in East 7.9 mph 7.9 mph 46 % 0.0 in
11:53 27.7 °F 15.1 °F 1017.8 in ENE 7.4 mph 7.4 mph 46 % 0.0 in
11:58 27.5 °F 15.2 °F 1017.8 in East 6.1 mph 6.1 mph 47 % 0.0 in
12:03 28.2 °F 15.5 °F 1017.8 in East 9.3 mph 9.3 mph 46 % 0.0 in
12:08 28.2 °F 15.5 °F 1017.8 in SE 7.4 mph 7.4 mph 46 % 0.0 in
12:13 29.0 °F 15.5 °F 1017.8 in South 9.3 mph 9.3 mph 44 % 0.0 in
12:18 29.1 °F 15.6 °F 1017.8 in ENE 9.3 mph 9.3 mph 44 % 0.0 in
12:23 28.3 °F 14.9 °F 1017.8 in ESE 14.8 mph 14.8 mph 44 % 0.0 in
12:28 28.5 °F 15.1 °F 1017.8 in SE 9.3 mph 9.3 mph 44 % 0.0 in
12:33 28.6 °F 15.2 °F 1017.8 in East 13.0 mph 13.0 mph 44 % 0.0 in
12:38 28.8 °F 15.3 °F 1017.8 in ESE 13.0 mph 13.0 mph 44 % 0.0 in
12:43 29.0 °F 15.2 °F 1017.8 in SE 7.4 mph 7.4 mph 43 % 0.0 in
12:48 29.1 °F 15.6 °F 1018.8 in NE 9.3 mph 9.3 mph 44 % 0.0 in
12:53 29.0 °F 15.5 °F 1018.8 in ESE 14.8 mph 14.8 mph 44 % 0.0 in
12:58 29.4 °F 15.9 °F 1017.8 in ESE 13.0 mph 13.0 mph 44 % 0.0 in
13:03 29.3 °F 16.1 °F 1017.8 in ESE 16.7 mph 16.7 mph 45 % 0.0 in
13:08 29.3 °F 16.1 °F 1017.8 in ENE 13.0 mph 13.0 mph 45 % 0.0 in
13:13 29.2 °F 16.4 °F 1017.8 in North 16.1 mph 16.1 mph 46 % 0.0 in
13:18 29.5 °F 17.0 °F 1017.8 in SSE 13.0 mph 13.0 mph 47 % 0.0 in
13:23 29.6 °F 17.1 °F 1017.8 in ESE 11.1 mph 11.1 mph 47 % 0.0 in
13:28 29.0 °F 16.6 °F 1017.8 in ESE 17.5 mph 17.5 mph 47 % 0.0 in
13:33 28.6 °F 16.8 °F 1017.8 in ESE 20.4 mph 20.4 mph 49 % 0.0 in
13:38 28.6 °F 16.8 °F 1017.8 in SE 16.7 mph 16.7 mph 49 % 0.0 in
13:43 28.7 °F 17.2 °F 1017.8 in ESE 18.5 mph 18.5 mph 50 % 0.0 in
13:48 28.4 °F 17.0 °F 1017.8 in ESE 16.7 mph 16.7 mph 50 % 0.0 in
13:53 28.6 °F 16.8 °F 1017.8 in East 23.3 mph 23.3 mph 49 % 0.0 in
13:58 28.1 °F 16.1 °F 1018.8 in ESE 24.1 mph 24.1 mph 48 % 0.0 in
14:03 28.5 °F 16.1 °F 1018.8 in SSW 14.8 mph 14.8 mph 47 % 0.0 in
14:08 28.6 °F 15.8 °F 1018.8 in SSE 16.7 mph 16.7 mph 46 % 0.0 in
14:13 28.3 °F 15.9 °F 1017.8 in SSE 22.2 mph 22.2 mph 47 % 0.0 in
14:18 28.5 °F 15.8 °F 1017.8 in ESE 16.7 mph 16.7 mph 46 % 0.0 in
14:23 28.3 °F 15.9 °F 1017.8 in East 14.8 mph 14.8 mph 47 % 0.0 in
14:28 28.0 °F 15.6 °F 1016.8 in ESE 20.4 mph 20.4 mph 47 % 0.0 in
14:33 28.2 °F 16.2 °F 1016.8 in NNE 16.7 mph 16.7 mph 48 % 0.0 in
14:35 28.2 °F 15.8 °F 1016.8 in ESE 24.8 mph 24.8 mph 47 % 0.0 in
14:40 27.9 °F 15.6 °F 1016.8 in ESE 18.5 mph 18.5 mph 47 % 0.0 in
14:45 28.0 °F 15.9 °F 1017.8 in SSE 13.0 mph 13.0 mph 48 % 0.0 in
14:50 28.6 °F 16.5 °F 1017.8 in SSE 15.6 mph 15.6 mph 48 % 0.0 in
14:55 28.0 °F 15.9 °F 1017.8 in ESE 20.4 mph 20.4 mph 48 % 0.0 in
15:00 27.8 °F 16.1 °F 1017.8 in SSE 14.8 mph 14.8 mph 49 % 0.0 in
15:05 27.9 °F 16.2 °F 1017.8 in ENE 18.5 mph 18.5 mph 49 % 0.0 in
15:10 28.4 °F 16.7 °F 1017.8 in ESE 14.8 mph 14.8 mph 49 % 0.0 in
15:15 28.2 °F 16.2 °F 1017.8 in ENE 20.4 mph 20.4 mph 48 % 0.0 in
15:20 28.3 °F 16.2 °F 1017.8 in ENE 18.5 mph 18.5 mph 48 % 0.0 in
15:25 28.4 °F 16.3 °F 1017.8 in ESE 14.8 mph 14.8 mph 48 % 0.0 in
15:30 27.9 °F 15.6 °F 1016.8 in ENE 18.5 mph 18.5 mph 47 % 0.0 in
15:35 28.0 °F 15.9 °F 1016.8 in East 18.5 mph 18.5 mph 48 % 0.0 in
15:40 28.0 °F 15.9 °F 1016.8 in ENE 24.1 mph 24.1 mph 48 % 0.0 in
15:45 27.9 °F 15.9 °F 1016.8 in East 13.0 mph 13.0 mph 48 % 0.0 in
15:50 27.7 °F 15.7 °F 1016.8 in ESE 13.0 mph 13.0 mph 48 % 0.0 in
15:55 27.8 °F 15.8 °F 1016.8 in East 20.4 mph 20.4 mph 48 % 0.0 in
16:00 27.6 °F 15.6 °F 1016.8 in ENE 20.4 mph 20.4 mph 48 % 0.0 in
16:05 27.7 °F 15.7 °F 1016.8 in East 9.3 mph 9.3 mph 48 % 0.0 in
16:10 27.4 °F 15.1 °F 1016.8 in ENE 11.1 mph 11.1 mph 47 % 0.0 in
16:15 27.4 °F 15.1 °F 1016.8 in East 9.3 mph 9.3 mph 47 % 0.0 in
16:20 27.5 °F 15.2 °F 1016.8 in NE 14.8 mph 14.8 mph 47 % 0.0 in
16:25 27.7 °F 15.4 °F 1016.8 in East 9.3 mph 9.3 mph 47 % 0.0 in
16:30 28.1 °F 15.7 °F 1016.8 in ENE 13.0 mph 13.0 mph 47 % 0.0 in
16:35 28.2 °F 15.8 °F 1016.8 in ENE 14.8 mph 14.8 mph 47 % 0.0 in
16:40 28.0 °F 15.9 °F 1016.8 in NNE 11.1 mph 11.1 mph 48 % 0.0 in
16:45 27.8 °F 15.8 °F 1015.8 in ESE 13.0 mph 13.0 mph 48 % 0.0 in
16:50 28.0 °F 15.9 °F 1015.8 in ESE 11.1 mph 11.1 mph 48 % 0.0 in
16:55 28.0 °F 15.9 °F 1015.8 in ESE 9.3 mph 9.3 mph 48 % 0.0 in
17:00 28.3 °F 16.2 °F 1015.8 in ENE 11.1 mph 11.1 mph 48 % 0.0 in
17:05 28.2 °F 16.2 °F 1015.8 in SSW 11.1 mph 11.1 mph 48 % 0.0 in
17:10 28.0 °F 16.3 °F 1015.8 in ESE 9.5 mph 9.5 mph 49 % 0.0 in
17:11 28.0 °F 16.3 °F 1015.8 in ESE 9.3 mph 9.3 mph 49 % 0.0 in
17:16 27.6 °F 15.9 °F 1015.8 in ESE 6.4 mph 6.4 mph 49 % 0.0 in
17:21 27.6 °F 16.2 °F 1015.8 in ENE 16.7 mph 16.7 mph 50 % 0.0 in
17:26 27.7 °F 16.7 °F 1015.8 in East 9.3 mph 9.3 mph 51 % 0.0 in
17:31 27.8 °F 16.7 °F 1015.8 in ESE 9.3 mph 9.3 mph 51 % 0.0 in
17:36 27.9 °F 16.8 °F 1015.8 in ESE 9.3 mph 9.3 mph 51 % 0.0 in
17:41 27.8 °F 16.7 °F 1015.8 in SE 9.3 mph 9.3 mph 51 % 0.0 in
17:46 27.9 °F 16.8 °F 1015.8 in SSE 5.6 mph 5.6 mph 51 % 0.0 in
17:51 27.8 °F 17.1 °F 1015.8 in SE 9.3 mph 9.3 mph 52 % 0.0 in
17:56 28.0 °F 17.2 °F 1015.8 in SSE 5.6 mph 5.6 mph 52 % 0.0 in
18:01 28.0 °F 17.2 °F 1015.8 in ESE 11.1 mph 11.1 mph 52 % 0.0 in
18:06 27.9 °F 17.1 °F 1015.8 in SSW 7.4 mph 7.4 mph 52 % 0.0 in
18:11 28.1 °F 17.3 °F 1015.8 in SW 9.3 mph 9.3 mph 52 % 0.0 in
18:16 28.1 °F 17.3 °F 1015.8 in SSE 9.3 mph 9.3 mph 52 % 0.0 in
18:21 27.7 °F 16.7 °F 1015.8 in SE 5.6 mph 5.6 mph 51 % 0.0 in
18:26 27.7 °F 16.3 °F 1015.8 in SSE 9.3 mph 9.3 mph 50 % 0.0 in
18:31 27.6 °F 15.9 °F 1015.8 in SSE 9.3 mph 9.3 mph 49 % 0.0 in
18:36 27.6 °F 15.9 °F 1015.8 in SW 5.6 mph 5.6 mph 49 % 0.0 in
18:41 27.6 °F 16.2 °F 1015.8 in ENE 2.3 mph 2.3 mph 50 % 0.0 in
18:46 27.8 °F 16.4 °F 1016.8 in SSE 7.4 mph 7.4 mph 50 % 0.0 in
18:51 27.7 °F 16.3 °F 1016.8 in East 3.7 mph 3.7 mph 50 % 0.0 in
18:52 27.7 °F 16.3 °F 1016.8 in ESE 3.7 mph   50 % 0.0 in
18:57 27.7 °F 16.0 °F 1016.8 in East 4.2 mph 4.2 mph 49 % 0.0 in
19:02 27.5 °F 16.2 °F 1016.8 in NE 5.6 mph 5.6 mph 50 % 0.0 in
19:07 27.5 °F 16.2 °F 1016.8 in ENE 5.8 mph 5.8 mph 50 % 0.0 in
19:12 27.4 °F 16.1 °F 1016.8 in ENE 9.3 mph 9.3 mph 50 % 0.0 in
19:17 27.4 °F 16.1 °F 1015.8 in East 13.0 mph 13.0 mph 50 % 0.0 in
19:22 27.3 °F 16.3 °F 1015.8 in ENE 14.8 mph 14.8 mph 51 % 0.0 in
19:27 27.1 °F 16.1 °F 1015.8 in East 9.3 mph 9.3 mph 51 % 0.0 in
19:32 27.1 °F 16.4 °F 1015.8 in NNE 9.3 mph 9.3 mph 52 % 0.0 in
19:37 26.9 °F 17.4 °F 1015.8 in NE 14.8 mph 14.8 mph 56 % 0.0 in
19:42 26.7 °F 18.0 °F 1015.8 in ENE 16.7 mph 16.7 mph 59 % 0.0 in
19:47 26.6 °F 18.4 °F 1015.8 in SE 11.1 mph 11.1 mph 61 % 0.0 in
19:52 26.3 °F 18.7 °F 1015.8 in NNE 13.0 mph 13.0 mph 63 % 0.0 in
19:57 26.2 °F 18.3 °F 1015.8 in ESE 9.5 mph 9.5 mph 62 % 0.0 in
20:02 26.1 °F 18.5 °F 1015.8 in ENE 14.8 mph 14.8 mph 63 % 0.0 in
20:07 26.1 °F 18.5 °F 1015.8 in South 9.3 mph 9.3 mph 63 % 0.0 in
20:12 26.2 °F 18.3 °F 1015.8 in SE 5.6 mph 5.6 mph 62 % 0.0 in
20:17 26.1 °F 18.0 °F 1016.8 in SSE 9.3 mph 9.3 mph 61 % 0.0 in
20:22 26.0 °F 17.9 °F 1016.8 in South 5.6 mph 5.6 mph 61 % 0.0 in
20:27 26.0 °F 17.6 °F 1016.8 in ENE 5.8 mph 5.8 mph 60 % 0.0 in
20:32 25.9 °F 17.6 °F 1016.8 in ENE 3.7 mph 3.7 mph 60 % 0.0 in
20:37 25.8 °F 17.4 °F 1016.8 in ENE 5.3 mph 5.3 mph 60 % 0.0 in
20:42 25.7 °F 17.6 °F 1016.8 in ESE 7.4 mph 7.4 mph 61 % 0.0 in
20:47 25.6 °F 17.5 °F 1016.8 in ENE 5.6 mph 5.6 mph 61 % 0.0 in
20:52 25.5 °F 17.7 °F 1016.8 in NNE 5.6 mph 5.6 mph 62 % 0.0 in
20:57 25.4 °F 17.6 °F 1016.8 in NE 5.6 mph 5.6 mph 62 % 0.0 in
21:02 25.3 °F 17.5 °F 1016.8 in East 5.6 mph 5.6 mph 62 % 0.0 in
21:07 25.2 °F 17.7 °F 1016.8 in NNE 6.9 mph 6.9 mph 63 % 0.0 in
21:12 25.1 °F 17.8 °F 1016.8 in NE 7.4 mph 7.4 mph 64 % 0.0 in
21:17 25.0 °F 17.7 °F 1015.8 in NNE 4.7 mph 4.7 mph 64 % 0.0 in
21:22 25.0 °F 17.9 °F 1015.8 in NE 4.2 mph 4.2 mph 65 % 0.0 in
21:27 24.9 °F 18.1 °F 1015.8 in NNE 5.6 mph 5.6 mph 66 % 0.0 in
21:32 24.8 °F 18.0 °F 1015.8 in NE 5.6 mph 5.6 mph 66 % 0.0 in
21:35 22.2 °F 16.7 °F 1017.8 in North 1.6 mph 1.6 mph 71 % 0.0 in
21:37 24.8 °F 18.3 °F 1015.8 in NE 3.7 mph 3.7 mph 67 % 0.0 in
21:42 24.7 °F 18.2 °F 1015.8 in NNE 5.6 mph 5.6 mph 67 % 0.0 in
21:45 22.1 °F 16.8 °F 1018.8 in NNE 3.2 mph 6.4 mph 72 % 0.0 in
21:47 24.6 °F 18.1 °F 1015.8 in ENE 3.7 mph 3.7 mph 67 % 0.0 in
21:52 24.6 °F 18.1 °F 1015.8 in ENE 3.7 mph 3.7 mph 67 % 0.0 in
21:55 22.1 °F 16.8 °F 1018.8 in NE 3.2 mph 4.8 mph 72 % 0.0 in
21:57 24.6 °F 18.3 °F 1015.8 in NE 3.7 mph 3.7 mph 68 % 0.0 in
22:02 24.5 °F 18.2 °F 1016.8 in Calm     68 % 0.0 in
22:05 21.9 °F 16.6 °F 1017.8 in NE 3.2 mph 4.8 mph 72 % 0.0 in
22:07 24.4 °F 18.1 °F 1016.8 in Calm     68 % 0.0 in
22:12 24.4 °F 18.1 °F 1016.8 in NNW 1.9 mph 1.9 mph 68 % 0.0 in
22:15 21.9 °F 16.8 °F 1017.8 in NNE 1.6 mph 3.2 mph 73 % 0.0 in
22:17 24.3 °F 18.2 °F 1016.8 in ENE 1.9 mph   69 % 0.0 in
22:22 24.3 °F 18.2 °F 1016.8 in ENE 3.7 mph 3.7 mph 69 % 0.0 in
22:25 21.8 °F 16.7 °F 1017.8 in NNE 1.6 mph 3.2 mph 73 % 0.0 in
22:27 24.3 °F 18.2 °F 1016.8 in NE 4.2 mph 4.2 mph 69 % 0.0 in
22:32 24.2 °F 18.2 °F 1016.8 in NNE 5.6 mph 5.8 mph 69 % 0.0 in
22:35 21.7 °F 16.7 °F 1017.8 in Calm     73 % 0.0 in
22:37 24.1 °F 18.1 °F 1016.8 in ENE 7.4 mph 7.4 mph 69 % 0.0 in
22:42 24.1 °F 18.3 °F 1016.8 in NE 4.2 mph 4.2 mph 70 % 0.0 in
22:45 21.7 °F 16.9 °F 1017.8 in North 1.6 mph 3.2 mph 74 % 0.0 in
22:47 24.1 °F 18.3 °F 1015.8 in NNE 6.1 mph 6.1 mph 70 % 0.0 in
22:52 24.1 °F 18.3 °F 1015.8 in NNE 1.4 mph   70 % 0.0 in
22:55 21.9 °F 17.3 °F 1017.8 in North 1.6 mph 3.2 mph 75 % 0.0 in
22:57 24.0 °F 18.2 °F 1015.8 in NNE 3.9 mph 3.9 mph 70 % 0.0 in
23:02 23.9 °F 18.3 °F 1016.8 in NE 1.9 mph   71 % 0.0 in
23:05 22.1 °F 17.7 °F 1017.8 in NE 3.2 mph 4.8 mph 76 % 0.0 in
23:07 23.8 °F 18.2 °F 1016.8 in NNW 1.9 mph 1.9 mph 71 % 0.0 in
23:12 23.8 °F 18.2 °F 1016.8 in Calm     71 % 0.0 in
23:15 22.2 °F 18.0 °F 1017.8 in NE 3.2 mph 4.8 mph 77 % 0.0 in
23:17 23.7 °F 18.3 °F 1017.8 in Calm     72 % 0.0 in
23:22 23.7 °F 18.3 °F 1017.8 in NE 5.6 mph 5.6 mph 72 % 0.0 in
23:25 22.0 °F 17.8 °F 1017.8 in NE 3.2 mph 4.8 mph 77 % 0.0 in
23:27 23.6 °F 18.1 °F 1017.8 in NNE 4.2 mph 4.2 mph 71 % 0.0 in
23:32 23.6 °F 18.1 °F 1016.8 in North 7.4 mph 7.4 mph 71 % 0.0 in
23:35 22.0 °F 17.8 °F 1017.8 in NNE 3.2 mph 4.8 mph 77 % 0.0 in
23:37 23.7 °F 17.9 °F 1016.8 in NNE 9.3 mph 9.3 mph 70 % 0.0 in
23:42 23.8 °F 18.0 °F 1016.8 in NNE 7.4 mph 7.4 mph 70 % 0.0 in
23:45 22.1 °F 18.1 °F 1017.8 in NNE 3.2 mph 4.8 mph 78 % 0.0 in
23:47 23.8 °F 17.8 °F 1016.8 in NE 11.1 mph 11.1 mph 69 % 0.0 in
23:49 23.8 °F 17.8 °F 1016.8 in ENE 9.7 mph 9.7 mph 69 % 0.0 in
23:54 23.8 °F 17.8 °F 1016.8 in NE 9.3 mph 9.3 mph 69 % 0.0 in
23:55 22.0 °F 18.0 °F 1017.8 in NNE 3.2 mph 4.8 mph 78 % 0.0 in
23:59 23.7 °F 17.4 °F 1016.8 in ENE 9.3 mph 9.3 mph 68 % 0.0 in
Meteo Sesrovires
Elogis d' Weather Underground - 1.5 mb

Guio original per  Jim McMurry - jmcmurry@mwt.net Adaptat per a la plantilla per  Wim van der Kuil - Leuven-Template.eu

Trobareu la nostra informacio del temps tambe a:

Weather Underground

AWEKAS